Terminal Aerodrome Forecast
Issued by NWS

Home | Current Version | Previous Version | Text Only | Print | Product List | Glossary On
Versions: 1 2 3 4 5 6 7 8 9 10 11 12
000
FTUS42 KMLB 211736
TAFSFB
TAF
KSFB 211736Z 2118/2218 06010KT P6SM SCT045 SCT250
     FM220200 03005KT P6SM FEW025 SCT250
     FM221300 06007KT P6SM SCT030
     FM221600 06009KT P6SM VCSH BKN040=

USA.gov is the U.S. government's official web portal to all federal, state and local government web resources and services.